sensor_id;sensor_type;location;lat;lon;timestamp;P1;durP1;ratioP1;P2;durP2;ratioP2
19189;SDS011;9727;50.200;19.038;2023-03-19T00:02:02;24.83;;;11.97;;
19189;SDS011;9727;50.200;19.038;2023-03-19T00:04:31;27.93;;;12.40;;
19189;SDS011;9727;50.200;19.038;2023-03-19T00:06:57;30.10;;;13.37;;
19189;SDS011;9727;50.200;19.038;2023-03-19T00:09:24;28.10;;;11.63;;
19189;SDS011;9727;50.200;19.038;2023-03-19T00:11:51;28.87;;;12.30;;
19189;SDS011;9727;50.200;19.038;2023-03-19T00:14:19;24.60;;;12.07;;
19189;SDS011;9727;50.200;19.038;2023-03-19T00:16:46;25.33;;;11.17;;
19189;SDS011;9727;50.200;19.038;2023-03-19T00:19:13;24.53;;;10.57;;
19189;SDS011;9727;50.200;19.038;2023-03-19T00:21:41;23.73;;;10.80;;
19189;SDS011;9727;50.200;19.038;2023-03-19T00:24:08;26.07;;;10.53;;
19189;SDS011;9727;50.200;19.038;2023-03-19T00:26:34;20.87;;;10.10;;
19189;SDS011;9727;50.200;19.038;2023-03-19T00:29:02;25.47;;;10.67;;
19189;SDS011;9727;50.200;19.038;2023-03-19T00:31:29;24.17;;;10.60;;
19189;SDS011;9727;50.200;19.038;2023-03-19T00:33:55;25.57;;;11.03;;
19189;SDS011;9727;50.200;19.038;2023-03-19T00:36:23;27.97;;;11.03;;
19189;SDS011;9727;50.200;19.038;2023-03-19T00:38:51;22.60;;;10.50;;
19189;SDS011;9727;50.200;19.038;2023-03-19T00:41:21;22.57;;;10.73;;
19189;SDS011;9727;50.200;19.038;2023-03-19T00:43:50;24.83;;;10.83;;
19189;SDS011;9727;50.200;19.038;2023-03-19T00:46:17;27.43;;;11.00;;
19189;SDS011;9727;50.200;19.038;2023-03-19T00:48:46;20.00;;;10.30;;
19189;SDS011;9727;50.200;19.038;2023-03-19T00:51:12;27.53;;;10.70;;
19189;SDS011;9727;50.200;19.038;2023-03-19T00:53:40;25.07;;;11.00;;
19189;SDS011;9727;50.200;19.038;2023-03-19T00:56:23;26.90;;;11.67;;
19189;SDS011;9727;50.200;19.038;2023-03-19T00:58:50;27.37;;;11.87;;
19189;SDS011;9727;50.200;19.038;2023-03-19T01:01:17;25.80;;;11.67;;
19189;SDS011;9727;50.200;19.038;2023-03-19T01:03:46;21.73;;;11.20;;
19189;SDS011;9727;50.200;19.038;2023-03-19T01:06:13;28.93;;;12.87;;
19189;SDS011;9727;50.200;19.038;2023-03-19T01:08:39;27.97;;;12.87;;
19189;SDS011;9727;50.200;19.038;2023-03-19T01:11:06;31.10;;;13.80;;
19189;SDS011;9727;50.200;19.038;2023-03-19T01:13:35;26.23;;;12.30;;
19189;SDS011;9727;50.200;19.038;2023-03-19T01:16:01;31.23;;;13.33;;
19189;SDS011;9727;50.200;19.038;2023-03-19T01:18:28;29.30;;;13.13;;
19189;SDS011;9727;50.200;19.038;2023-03-19T01:20:55;25.27;;;12.57;;
19189;SDS011;9727;50.200;19.038;2023-03-19T01:23:21;33.50;;;13.13;;
19189;SDS011;9727;50.200;19.038;2023-03-19T01:25:48;31.07;;;12.17;;
19189;SDS011;9727;50.200;19.038;2023-03-19T01:28:23;28.57;;;11.23;;
19189;SDS011;9727;50.200;19.038;2023-03-19T01:30:52;23.03;;;10.90;;
19189;SDS011;9727;50.200;19.038;2023-03-19T01:33:19;26.27;;;11.63;;
19189;SDS011;9727;50.200;19.038;2023-03-19T01:35:45;27.63;;;11.30;;
19189;SDS011;9727;50.200;19.038;2023-03-19T01:38:13;25.53;;;11.67;;
19189;SDS011;9727;50.200;19.038;2023-03-19T01:40:42;25.27;;;11.23;;
19189;SDS011;9727;50.200;19.038;2023-03-19T01:43:13;22.77;;;10.40;;
19189;SDS011;9727;50.200;19.038;2023-03-19T01:45:50;27.63;;;10.80;;
19189;SDS011;9727;50.200;19.038;2023-03-19T01:48:22;20.67;;;10.43;;
19189;SDS011;9727;50.200;19.038;2023-03-19T01:50:51;25.60;;;10.30;;
19189;SDS011;9727;50.200;19.038;2023-03-19T01:53:20;24.73;;;11.07;;
19189;SDS011;9727;50.200;19.038;2023-03-19T01:55:48;23.13;;;9.97;;
19189;SDS011;9727;50.200;19.038;2023-03-19T01:58:22;21.07;;;10.00;;
19189;SDS011;9727;50.200;19.038;2023-03-19T02:00:48;23.67;;;10.57;;
19189;SDS011;9727;50.200;19.038;2023-03-19T02:03:23;19.53;;;9.93;;
19189;SDS011;9727;50.200;19.038;2023-03-19T02:05:50;21.33;;;9.27;;
19189;SDS011;9727;50.200;19.038;2023-03-19T02:08:18;19.60;;;9.87;;
19189;SDS011;9727;50.200;19.038;2023-03-19T02:10:48;23.33;;;9.90;;
19189;SDS011;9727;50.200;19.038;2023-03-19T02:13:16;21.87;;;10.13;;
19189;SDS011;9727;50.200;19.038;2023-03-19T02:15:43;23.23;;;10.60;;
19189;SDS011;9727;50.200;19.038;2023-03-19T02:18:09;26.13;;;10.57;;
19189;SDS011;9727;50.200;19.038;2023-03-19T02:20:40;20.77;;;10.13;;
19189;SDS011;9727;50.200;19.038;2023-03-19T02:23:12;22.37;;;10.17;;
19189;SDS011;9727;50.200;19.038;2023-03-19T02:25:41;25.60;;;10.97;;
19189;SDS011;9727;50.200;19.038;2023-03-19T02:28:13;24.27;;;10.83;;
19189;SDS011;9727;50.200;19.038;2023-03-19T02:30:43;27.57;;;11.47;;
19189;SDS011;9727;50.200;19.038;2023-03-19T02:33:10;26.70;;;11.40;;
19189;SDS011;9727;50.200;19.038;2023-03-19T02:35:37;26.47;;;12.23;;
19189;SDS011;9727;50.200;19.038;2023-03-19T02:38:04;30.07;;;11.43;;
19189;SDS011;9727;50.200;19.038;2023-03-19T02:40:33;25.37;;;12.13;;
19189;SDS011;9727;50.200;19.038;2023-03-19T02:43:00;25.03;;;12.07;;
19189;SDS011;9727;50.200;19.038;2023-03-19T02:45:28;28.07;;;12.37;;
19189;SDS011;9727;50.200;19.038;2023-03-19T02:47:55;29.30;;;13.17;;
19189;SDS011;9727;50.200;19.038;2023-03-19T02:50:22;30.13;;;13.03;;
19189;SDS011;9727;50.200;19.038;2023-03-19T02:52:49;32.27;;;13.63;;
19189;SDS011;9727;50.200;19.038;2023-03-19T02:55:19;26.07;;;11.60;;
19189;SDS011;9727;50.200;19.038;2023-03-19T02:57:46;28.03;;;12.20;;
19189;SDS011;9727;50.200;19.038;2023-03-19T03:00:13;31.83;;;11.60;;
19189;SDS011;9727;50.200;19.038;2023-03-19T03:02:43;26.10;;;12.37;;
19189;SDS011;9727;50.200;19.038;2023-03-19T03:05:10;27.23;;;11.87;;
19189;SDS011;9727;50.200;19.038;2023-03-19T03:07:36;31.07;;;13.27;;
19189;SDS011;9727;50.200;19.038;2023-03-19T03:10:04;24.70;;;12.50;;
19189;SDS011;9727;50.200;19.038;2023-03-19T03:12:31;26.07;;;12.37;;
19189;SDS011;9727;50.200;19.038;2023-03-19T03:14:57;27.93;;;12.57;;
19189;SDS011;9727;50.200;19.038;2023-03-19T03:17:24;27.07;;;12.47;;
19189;SDS011;9727;50.200;19.038;2023-03-19T03:19:52;28.93;;;12.30;;
19189;SDS011;9727;50.200;19.038;2023-03-19T03:22:22;28.60;;;13.23;;
19189;SDS011;9727;50.200;19.038;2023-03-19T03:24:48;31.93;;;13.00;;
19189;SDS011;9727;50.200;19.038;2023-03-19T03:27:21;31.57;;;14.00;;
19189;SDS011;9727;50.200;19.038;2023-03-19T03:29:47;30.77;;;13.00;;
19189;SDS011;9727;50.200;19.038;2023-03-19T03:32:14;28.83;;;12.77;;
19189;SDS011;9727;50.200;19.038;2023-03-19T03:34:45;31.17;;;13.17;;
19189;SDS011;9727;50.200;19.038;2023-03-19T03:37:13;26.63;;;12.53;;
19189;SDS011;9727;50.200;19.038;2023-03-19T03:39:41;27.17;;;12.17;;
19189;SDS011;9727;50.200;19.038;2023-03-19T03:42:08;32.50;;;13.67;;
19189;SDS011;9727;50.200;19.038;2023-03-19T03:44:48;28.23;;;11.70;;
19189;SDS011;9727;50.200;19.038;2023-03-19T03:47:20;28.80;;;13.20;;
19189;SDS011;9727;50.200;19.038;2023-03-19T03:49:47;25.07;;;11.97;;
19189;SDS011;9727;50.200;19.038;2023-03-19T03:52:16;27.17;;;12.20;;
19189;SDS011;9727;50.200;19.038;2023-03-19T03:54:42;27.77;;;11.93;;
19189;SDS011;9727;50.200;19.038;2023-03-19T03:57:09;27.40;;;12.73;;
19189;SDS011;9727;50.200;19.038;2023-03-19T03:59:36;23.27;;;12.60;;
19189;SDS011;9727;50.200;19.038;2023-03-19T04:02:02;27.20;;;12.37;;
19189;SDS011;9727;50.200;19.038;2023-03-19T04:04:30;24.93;;;11.67;;
19189;SDS011;9727;50.200;19.038;2023-03-19T04:06:57;21.93;;;10.83;;
19189;SDS011;9727;50.200;19.038;2023-03-19T04:09:25;24.07;;;11.40;;
19189;SDS011;9727;50.200;19.038;2023-03-19T04:11:52;26.10;;;11.80;;
19189;SDS011;9727;50.200;19.038;2023-03-19T04:14:22;27.50;;;11.77;;
19189;SDS011;9727;50.200;19.038;2023-03-19T04:16:48;24.10;;;11.20;;
19189;SDS011;9727;50.200;19.038;2023-03-19T04:19:19;21.40;;;10.70;;
19189;SDS011;9727;50.200;19.038;2023-03-19T04:21:46;26.37;;;11.27;;
19189;SDS011;9727;50.200;19.038;2023-03-19T04:24:12;24.93;;;11.03;;
19189;SDS011;9727;50.200;19.038;2023-03-19T04:26:41;22.87;;;11.17;;
19189;SDS011;9727;50.200;19.038;2023-03-19T04:29:08;20.93;;;10.40;;
19189;SDS011;9727;50.200;19.038;2023-03-19T04:31:35;23.60;;;11.37;;
19189;SDS011;9727;50.200;19.038;2023-03-19T04:34:02;23.10;;;10.77;;
19189;SDS011;9727;50.200;19.038;2023-03-19T04:36:28;22.23;;;11.57;;
19189;SDS011;9727;50.200;19.038;2023-03-19T04:38:55;23.50;;;10.50;;
19189;SDS011;9727;50.200;19.038;2023-03-19T04:41:22;22.30;;;10.97;;
19189;SDS011;9727;50.200;19.038;2023-03-19T04:43:50;22.43;;;11.10;;
19189;SDS011;9727;50.200;19.038;2023-03-19T04:46:16;26.17;;;10.83;;
19189;SDS011;9727;50.200;19.038;2023-03-19T04:48:43;20.53;;;10.53;;
19189;SDS011;9727;50.200;19.038;2023-03-19T04:51:10;22.27;;;11.30;;
19189;SDS011;9727;50.200;19.038;2023-03-19T04:53:36;19.40;;;11.27;;
19189;SDS011;9727;50.200;19.038;2023-03-19T04:56:04;20.67;;;10.27;;
19189;SDS011;9727;50.200;19.038;2023-03-19T04:58:31;21.27;;;9.50;;
19189;SDS011;9727;50.200;19.038;2023-03-19T05:00:59;24.63;;;10.40;;
19189;SDS011;9727;50.200;19.038;2023-03-19T05:03:26;19.10;;;9.87;;
19189;SDS011;9727;50.200;19.038;2023-03-19T05:05:52;21.17;;;10.20;;
19189;SDS011;9727;50.200;19.038;2023-03-19T05:08:22;19.63;;;10.23;;
19189;SDS011;9727;50.200;19.038;2023-03-19T05:10:49;19.03;;;9.40;;
19189;SDS011;9727;50.200;19.038;2023-03-19T05:13:21;20.17;;;10.17;;
19189;SDS011;9727;50.200;19.038;2023-03-19T05:15:48;21.60;;;10.43;;
19189;SDS011;9727;50.200;19.038;2023-03-19T05:18:19;21.47;;;9.93;;
19189;SDS011;9727;50.200;19.038;2023-03-19T05:20:46;19.60;;;10.20;;
19189;SDS011;9727;50.200;19.038;2023-03-19T05:23:13;19.00;;;9.73;;
19189;SDS011;9727;50.200;19.038;2023-03-19T05:25:41;18.10;;;9.77;;
19189;SDS011;9727;50.200;19.038;2023-03-19T05:28:08;16.97;;;9.33;;
19189;SDS011;9727;50.200;19.038;2023-03-19T05:30:34;19.43;;;9.57;;
19189;SDS011;9727;50.200;19.038;2023-03-19T05:33:01;20.97;;;9.97;;
19189;SDS011;9727;50.200;19.038;2023-03-19T05:35:29;20.80;;;10.70;;
19189;SDS011;9727;50.200;19.038;2023-03-19T05:37:56;24.80;;;12.07;;
19189;SDS011;9727;50.200;19.038;2023-03-19T05:40:22;19.70;;;10.00;;
19189;SDS011;9727;50.200;19.038;2023-03-19T05:42:49;24.73;;;11.30;;
19189;SDS011;9727;50.200;19.038;2023-03-19T05:45:16;21.67;;;10.77;;
19189;SDS011;9727;50.200;19.038;2023-03-19T05:47:46;21.00;;;11.10;;
19189;SDS011;9727;50.200;19.038;2023-03-19T05:50:12;20.90;;;11.70;;
19189;SDS011;9727;50.200;19.038;2023-03-19T05:52:40;24.00;;;11.83;;
19189;SDS011;9727;50.200;19.038;2023-03-19T05:55:07;22.10;;;11.43;;
19189;SDS011;9727;50.200;19.038;2023-03-19T05:57:34;25.03;;;12.20;;
19189;SDS011;9727;50.200;19.038;2023-03-19T06:00:01;21.80;;;11.30;;
19189;SDS011;9727;50.200;19.038;2023-03-19T06:02:29;19.73;;;10.97;;
19189;SDS011;9727;50.200;19.038;2023-03-19T06:04:55;23.50;;;11.50;;
19189;SDS011;9727;50.200;19.038;2023-03-19T06:07:22;22.00;;;11.67;;
19189;SDS011;9727;50.200;19.038;2023-03-19T06:09:52;19.10;;;10.33;;
19189;SDS011;9727;50.200;19.038;2023-03-19T06:12:19;20.10;;;10.40;;
19189;SDS011;9727;50.200;19.038;2023-03-19T06:14:46;18.47;;;10.30;;
19189;SDS011;9727;50.200;19.038;2023-03-19T06:17:12;22.23;;;11.23;;
19189;SDS011;9727;50.200;19.038;2023-03-19T06:19:39;17.60;;;10.10;;
19189;SDS011;9727;50.200;19.038;2023-03-19T06:22:05;19.87;;;9.17;;
19189;SDS011;9727;50.200;19.038;2023-03-19T06:24:33;18.43;;;9.60;;
19189;SDS011;9727;50.200;19.038;2023-03-19T06:27:01;20.27;;;9.60;;
19189;SDS011;9727;50.200;19.038;2023-03-19T06:29:28;18.40;;;9.60;;
19189;SDS011;9727;50.200;19.038;2023-03-19T06:31:55;18.67;;;9.60;;
19189;SDS011;9727;50.200;19.038;2023-03-19T06:34:21;16.53;;;9.03;;
19189;SDS011;9727;50.200;19.038;2023-03-19T06:36:48;16.40;;;9.57;;
19189;SDS011;9727;50.200;19.038;2023-03-19T06:39:17;15.93;;;8.20;;
19189;SDS011;9727;50.200;19.038;2023-03-19T06:41:46;14.97;;;8.27;;
19189;SDS011;9727;50.200;19.038;2023-03-19T06:44:14;15.93;;;8.23;;
19189;SDS011;9727;50.200;19.038;2023-03-19T06:46:50;14.33;;;8.33;;
19189;SDS011;9727;50.200;19.038;2023-03-19T06:49:17;13.70;;;8.17;;
19189;SDS011;9727;50.200;19.038;2023-03-19T06:51:46;15.43;;;7.60;;
19189;SDS011;9727;50.200;19.038;2023-03-19T06:54:12;13.13;;;7.83;;
19189;SDS011;9727;50.200;19.038;2023-03-19T06:56:39;17.47;;;8.73;;
19189;SDS011;9727;50.200;19.038;2023-03-19T06:59:06;12.70;;;7.63;;
19189;SDS011;9727;50.200;19.038;2023-03-19T07:01:37;18.00;;;8.93;;
19189;SDS011;9727;50.200;19.038;2023-03-19T07:04:04;15.37;;;8.80;;
19189;SDS011;9727;50.200;19.038;2023-03-19T07:06:31;14.93;;;8.87;;
19189;SDS011;9727;50.200;19.038;2023-03-19T07:08:59;19.83;;;10.83;;
19189;SDS011;9727;50.200;19.038;2023-03-19T07:11:25;19.37;;;10.70;;
19189;SDS011;9727;50.200;19.038;2023-03-19T07:13:52;21.90;;;11.83;;
19189;SDS011;9727;50.200;19.038;2023-03-19T07:16:19;21.43;;;10.97;;
19189;SDS011;9727;50.200;19.038;2023-03-19T07:18:47;18.57;;;10.13;;
19189;SDS011;9727;50.200;19.038;2023-03-19T07:21:14;20.93;;;11.10;;
19189;SDS011;9727;50.200;19.038;2023-03-19T07:23:45;18.90;;;10.53;;
19189;SDS011;9727;50.200;19.038;2023-03-19T07:26:12;17.40;;;10.00;;
19189;SDS011;9727;50.200;19.038;2023-03-19T07:28:40;16.57;;;9.83;;
19189;SDS011;9727;50.200;19.038;2023-03-19T07:31:06;14.63;;;9.37;;
19189;SDS011;9727;50.200;19.038;2023-03-19T07:33:33;15.63;;;9.00;;
19189;SDS011;9727;50.200;19.038;2023-03-19T07:36:01;18.63;;;9.73;;
19189;SDS011;9727;50.200;19.038;2023-03-19T07:38:27;15.23;;;9.10;;
19189;SDS011;9727;50.200;19.038;2023-03-19T07:40:54;17.80;;;9.93;;
19189;SDS011;9727;50.200;19.038;2023-03-19T07:43:21;13.97;;;8.40;;
19189;SDS011;9727;50.200;19.038;2023-03-19T07:45:47;14.83;;;8.30;;
19189;SDS011;9727;50.200;19.038;2023-03-19T07:48:14;12.53;;;8.00;;
19189;SDS011;9727;50.200;19.038;2023-03-19T07:50:48;13.60;;;8.10;;
19189;SDS011;9727;50.200;19.038;2023-03-19T07:53:17;12.37;;;7.63;;
19189;SDS011;9727;50.200;19.038;2023-03-19T07:55:48;14.60;;;8.03;;
19189;SDS011;9727;50.200;19.038;2023-03-19T07:58:16;13.13;;;7.97;;
19189;SDS011;9727;50.200;19.038;2023-03-19T08:00:44;15.17;;;7.73;;
19189;SDS011;9727;50.200;19.038;2023-03-19T08:03:11;12.77;;;7.70;;
19189;SDS011;9727;50.200;19.038;2023-03-19T08:05:38;11.07;;;7.30;;
19189;SDS011;9727;50.200;19.038;2023-03-19T08:08:05;12.57;;;7.00;;
19189;SDS011;9727;50.200;19.038;2023-03-19T08:10:33;10.10;;;6.63;;
19189;SDS011;9727;50.200;19.038;2023-03-19T08:13:00;12.17;;;6.07;;
19189;SDS011;9727;50.200;19.038;2023-03-19T08:15:28;9.87;;;6.20;;
19189;SDS011;9727;50.200;19.038;2023-03-19T08:17:58;8.03;;;5.43;;
19189;SDS011;9727;50.200;19.038;2023-03-19T08:20:25;11.07;;;6.27;;
19189;SDS011;9727;50.200;19.038;2023-03-19T08:22:51;10.83;;;6.60;;
19189;SDS011;9727;50.200;19.038;2023-03-19T08:25:21;9.57;;;6.27;;
19189;SDS011;9727;50.200;19.038;2023-03-19T08:27:50;9.10;;;5.70;;
19189;SDS011;9727;50.200;19.038;2023-03-19T08:30:16;10.77;;;6.37;;
19189;SDS011;9727;50.200;19.038;2023-03-19T08:32:46;10.73;;;6.57;;
19189;SDS011;9727;50.200;19.038;2023-03-19T08:35:13;11.20;;;6.17;;
19189;SDS011;9727;50.200;19.038;2023-03-19T08:37:41;13.17;;;7.10;;
19189;SDS011;9727;50.200;19.038;2023-03-19T08:40:08;12.40;;;7.27;;
19189;SDS011;9727;50.200;19.038;2023-03-19T08:42:35;10.80;;;6.67;;
19189;SDS011;9727;50.200;19.038;2023-03-19T08:45:04;12.13;;;7.00;;
19189;SDS011;9727;50.200;19.038;2023-03-19T08:47:31;13.30;;;7.83;;
19189;SDS011;9727;50.200;19.038;2023-03-19T08:49:58;17.53;;;8.27;;
19189;SDS011;9727;50.200;19.038;2023-03-19T08:52:25;13.70;;;9.17;;
19189;SDS011;9727;50.200;19.038;2023-03-19T08:54:51;15.40;;;8.20;;
19189;SDS011;9727;50.200;19.038;2023-03-19T08:57:19;17.57;;;9.53;;
19189;SDS011;9727;50.200;19.038;2023-03-19T08:59:47;13.37;;;8.77;;
19189;SDS011;9727;50.200;19.038;2023-03-19T09:02:19;14.17;;;9.33;;
19189;SDS011;9727;50.200;19.038;2023-03-19T09:04:46;15.07;;;9.53;;
19189;SDS011;9727;50.200;19.038;2023-03-19T09:07:16;16.83;;;9.80;;
19189;SDS011;9727;50.200;19.038;2023-03-19T09:09:43;15.67;;;9.80;;
19189;SDS011;9727;50.200;19.038;2023-03-19T09:12:11;17.63;;;10.80;;
19189;SDS011;9727;50.200;19.038;2023-03-19T09:14:52;17.83;;;10.80;;
19189;SDS011;9727;50.200;19.038;2023-03-19T09:17:21;17.33;;;10.63;;
19189;SDS011;9727;50.200;19.038;2023-03-19T09:19:47;18.27;;;10.43;;
19189;SDS011;9727;50.200;19.038;2023-03-19T09:22:14;14.27;;;9.50;;
19189;SDS011;9727;50.200;19.038;2023-03-19T09:24:41;16.57;;;10.43;;
19189;SDS011;9727;50.200;19.038;2023-03-19T09:27:08;19.03;;;10.53;;
19189;SDS011;9727;50.200;19.038;2023-03-19T09:29:35;17.67;;;9.97;;
19189;SDS011;9727;50.200;19.038;2023-03-19T09:32:01;16.10;;;9.33;;
19189;SDS011;9727;50.200;19.038;2023-03-19T09:34:30;18.97;;;9.73;;
19189;SDS011;9727;50.200;19.038;2023-03-19T09:36:56;17.83;;;10.67;;
19189;SDS011;9727;50.200;19.038;2023-03-19T09:39:23;15.47;;;8.90;;
19189;SDS011;9727;50.200;19.038;2023-03-19T09:41:55;17.03;;;9.10;;
19189;SDS011;9727;50.200;19.038;2023-03-19T09:44:28;17.57;;;9.90;;
19189;SDS011;9727;50.200;19.038;2023-03-19T09:46:56;16.00;;;9.80;;
19189;SDS011;9727;50.200;19.038;2023-03-19T09:49:24;17.33;;;10.17;;
19189;SDS011;9727;50.200;19.038;2023-03-19T09:51:54;15.23;;;9.20;;
19189;SDS011;9727;50.200;19.038;2023-03-19T09:54:24;12.77;;;7.83;;
19189;SDS011;9727;50.200;19.038;2023-03-19T09:56:52;12.20;;;7.47;;
19189;SDS011;9727;50.200;19.038;2023-03-19T09:59:19;12.37;;;7.70;;
19189;SDS011;9727;50.200;19.038;2023-03-19T10:01:48;10.80;;;6.87;;
19189;SDS011;9727;50.200;19.038;2023-03-19T10:04:28;9.70;;;6.27;;
19189;SDS011;9727;50.200;19.038;2023-03-19T10:07:02;12.30;;;6.90;;
19189;SDS011;9727;50.200;19.038;2023-03-19T10:09:35;10.40;;;6.47;;
19189;SDS011;9727;50.200;19.038;2023-03-19T10:12:17;13.30;;;6.90;;
19189;SDS011;9727;50.200;19.038;2023-03-19T10:14:57;10.50;;;6.17;;
19189;SDS011;9727;50.200;19.038;2023-03-19T10:17:28;9.87;;;6.27;;
19189;SDS011;9727;50.200;19.038;2023-03-19T10:19:56;11.00;;;6.47;;
19189;SDS011;9727;50.200;19.038;2023-03-19T10:22:26;10.20;;;6.50;;
19189;SDS011;9727;50.200;19.038;2023-03-19T10:24:55;8.57;;;5.70;;
19189;SDS011;9727;50.200;19.038;2023-03-19T10:27:24;10.50;;;6.27;;
19189;SDS011;9727;50.200;19.038;2023-03-19T10:29:52;8.87;;;5.47;;
19189;SDS011;9727;50.200;19.038;2023-03-19T10:32:20;8.40;;;5.97;;
19189;SDS011;9727;50.200;19.038;2023-03-19T10:34:54;8.70;;;5.00;;
19189;SDS011;9727;50.200;19.038;2023-03-19T10:37:23;8.50;;;6.20;;
19189;SDS011;9727;50.200;19.038;2023-03-19T10:39:54;9.67;;;5.83;;
19189;SDS011;9727;50.200;19.038;2023-03-19T10:42:25;8.50;;;5.37;;
19189;SDS011;9727;50.200;19.038;2023-03-19T10:44:58;9.73;;;5.63;;
19189;SDS011;9727;50.200;19.038;2023-03-19T10:47:25;9.00;;;5.50;;
19189;SDS011;9727;50.200;19.038;2023-03-19T10:49:52;8.40;;;5.60;;
19189;SDS011;9727;50.200;19.038;2023-03-19T10:52:21;8.00;;;5.27;;
19189;SDS011;9727;50.200;19.038;2023-03-19T10:54:52;9.40;;;5.10;;
19189;SDS011;9727;50.200;19.038;2023-03-19T10:57:21;7.27;;;4.90;;
19189;SDS011;9727;50.200;19.038;2023-03-19T10:59:47;8.97;;;4.70;;
19189;SDS011;9727;50.200;19.038;2023-03-19T11:02:14;8.17;;;5.00;;
19189;SDS011;9727;50.200;19.038;2023-03-19T11:05:04;7.30;;;4.57;;
19189;SDS011;9727;50.200;19.038;2023-03-19T11:07:31;6.53;;;4.47;;
19189;SDS011;9727;50.200;19.038;2023-03-19T11:10:00;6.00;;;4.50;;
19189;SDS011;9727;50.200;19.038;2023-03-19T11:12:28;7.03;;;4.83;;
19189;SDS011;9727;50.200;19.038;2023-03-19T11:14:58;6.73;;;4.80;;
19189;SDS011;9727;50.200;19.038;2023-03-19T11:17:34;7.93;;;4.97;;
19189;SDS011;9727;50.200;19.038;2023-03-19T11:20:07;6.97;;;4.77;;
19189;SDS011;9727;50.200;19.038;2023-03-19T11:22:35;7.63;;;4.30;;
19189;SDS011;9727;50.200;19.038;2023-03-19T11:25:13;7.40;;;4.77;;
19189;SDS011;9727;50.200;19.038;2023-03-19T11:27:40;6.60;;;4.60;;
19189;SDS011;9727;50.200;19.038;2023-03-19T11:30:11;7.20;;;4.40;;
19189;SDS011;9727;50.200;19.038;2023-03-19T11:32:51;7.43;;;4.70;;
19189;SDS011;9727;50.200;19.038;2023-03-19T11:35:19;6.50;;;4.57;;
19189;SDS011;9727;50.200;19.038;2023-03-19T11:37:49;8.47;;;4.63;;
19189;SDS011;9727;50.200;19.038;2023-03-19T11:40:22;6.37;;;4.10;;
19189;SDS011;9727;50.200;19.038;2023-03-19T11:42:59;6.70;;;4.40;;
19189;SDS011;9727;50.200;19.038;2023-03-19T11:45:31;8.03;;;5.43;;
19189;SDS011;9727;50.200;19.038;2023-03-19T11:48:05;7.27;;;4.60;;
19189;SDS011;9727;50.200;19.038;2023-03-19T11:50:38;6.23;;;4.70;;
19189;SDS011;9727;50.200;19.038;2023-03-19T11:53:09;6.97;;;4.80;;
19189;SDS011;9727;50.200;19.038;2023-03-19T11:55:40;7.40;;;4.40;;
19189;SDS011;9727;50.200;19.038;2023-03-19T12:00:54;6.17;;;4.23;;
19189;SDS011;9727;50.200;19.038;2023-03-19T12:06:11;9.33;;;4.63;;
19189;SDS011;9727;50.200;19.038;2023-03-19T12:08:43;7.50;;;4.77;;
19189;SDS011;9727;50.200;19.038;2023-03-19T12:11:16;6.90;;;4.73;;
19189;SDS011;9727;50.200;19.038;2023-03-19T12:13:51;6.97;;;4.80;;
19189;SDS011;9727;50.200;19.038;2023-03-19T12:16:21;5.50;;;4.33;;
19189;SDS011;9727;50.200;19.038;2023-03-19T12:19:05;6.23;;;4.63;;
19189;SDS011;9727;50.200;19.038;2023-03-19T12:21:45;7.13;;;4.37;;
19189;SDS011;9727;50.200;19.038;2023-03-19T12:24:18;7.40;;;4.83;;
19189;SDS011;9727;50.200;19.038;2023-03-19T12:26:51;7.47;;;4.17;;
19189;SDS011;9727;50.200;19.038;2023-03-19T12:29:26;11.73;;;4.90;;
19189;SDS011;9727;50.200;19.038;2023-03-19T12:34:44;6.30;;;4.63;;
19189;SDS011;9727;50.200;19.038;2023-03-19T12:37:14;8.07;;;4.90;;
19189;SDS011;9727;50.200;19.038;2023-03-19T12:39:44;8.13;;;4.90;;
19189;SDS011;9727;50.200;19.038;2023-03-19T12:42:18;8.13;;;4.93;;
19189;SDS011;9727;50.200;19.038;2023-03-19T12:44:46;6.60;;;4.93;;
19189;SDS011;9727;50.200;19.038;2023-03-19T12:47:17;8.83;;;4.80;;
19189;SDS011;9727;50.200;19.038;2023-03-19T12:49:47;7.20;;;4.87;;
19189;SDS011;9727;50.200;19.038;2023-03-19T12:52:17;9.40;;;5.17;;
19189;SDS011;9727;50.200;19.038;2023-03-19T12:54:47;6.70;;;4.80;;
19189;SDS011;9727;50.200;19.038;2023-03-19T12:57:22;7.60;;;4.70;;
19189;SDS011;9727;50.200;19.038;2023-03-19T12:59:54;7.47;;;4.73;;
19189;SDS011;9727;50.200;19.038;2023-03-19T13:02:23;6.70;;;4.70;;
19189;SDS011;9727;50.200;19.038;2023-03-19T13:04:54;6.90;;;4.53;;
19189;SDS011;9727;50.200;19.038;2023-03-19T13:07:23;8.43;;;4.93;;
19189;SDS011;9727;50.200;19.038;2023-03-19T13:09:55;8.17;;;4.70;;
19189;SDS011;9727;50.200;19.038;2023-03-19T13:12:25;8.10;;;4.37;;
19189;SDS011;9727;50.200;19.038;2023-03-19T13:14:54;6.43;;;4.50;;
19189;SDS011;9727;50.200;19.038;2023-03-19T13:17:24;7.13;;;4.57;;
19189;SDS011;9727;50.200;19.038;2023-03-19T13:19:53;8.93;;;4.80;;
19189;SDS011;9727;50.200;19.038;2023-03-19T13:22:21;7.57;;;5.03;;
19189;SDS011;9727;50.200;19.038;2023-03-19T13:24:50;7.43;;;4.90;;
19189;SDS011;9727;50.200;19.038;2023-03-19T13:27:20;6.10;;;4.20;;
19189;SDS011;9727;50.200;19.038;2023-03-19T13:29:54;7.17;;;4.83;;
19189;SDS011;9727;50.200;19.038;2023-03-19T13:32:22;7.43;;;4.80;;
19189;SDS011;9727;50.200;19.038;2023-03-19T13:34:49;8.47;;;4.73;;
19189;SDS011;9727;50.200;19.038;2023-03-19T13:37:16;7.87;;;4.70;;
19189;SDS011;9727;50.200;19.038;2023-03-19T13:39:47;6.60;;;4.90;;
19189;SDS011;9727;50.200;19.038;2023-03-19T13:50:53;8.67;;;4.53;;
19189;SDS011;9727;50.200;19.038;2023-03-19T13:53:32;7.17;;;5.20;;
19189;SDS011;9727;50.200;19.038;2023-03-19T13:56:00;9.77;;;5.20;;
19189;SDS011;9727;50.200;19.038;2023-03-19T13:58:28;10.77;;;5.87;;
19189;SDS011;9727;50.200;19.038;2023-03-19T14:03:58;7.90;;;5.53;;
19189;SDS011;9727;50.200;19.038;2023-03-19T14:06:37;9.00;;;5.83;;
19189;SDS011;9727;50.200;19.038;2023-03-19T14:09:05;10.47;;;6.13;;
19189;SDS011;9727;50.200;19.038;2023-03-19T14:11:34;10.23;;;5.60;;
19189;SDS011;9727;50.200;19.038;2023-03-19T14:14:03;10.17;;;5.60;;
19189;SDS011;9727;50.200;19.038;2023-03-19T14:16:30;9.17;;;6.03;;
19189;SDS011;9727;50.200;19.038;2023-03-19T14:18:59;10.70;;;6.00;;
19189;SDS011;9727;50.200;19.038;2023-03-19T14:21:31;9.47;;;5.73;;
19189;SDS011;9727;50.200;19.038;2023-03-19T14:24:20;9.60;;;5.70;;
19189;SDS011;9727;50.200;19.038;2023-03-19T14:26:52;9.27;;;5.80;;
19189;SDS011;9727;50.200;19.038;2023-03-19T14:29:21;8.63;;;5.60;;
19189;SDS011;9727;50.200;19.038;2023-03-19T14:31:51;9.67;;;5.90;;
19189;SDS011;9727;50.200;19.038;2023-03-19T14:34:20;7.83;;;5.47;;
19189;SDS011;9727;50.200;19.038;2023-03-19T14:36:48;9.67;;;5.83;;
19189;SDS011;9727;50.200;19.038;2023-03-19T14:39:20;10.67;;;5.83;;
19189;SDS011;9727;50.200;19.038;2023-03-19T14:41:48;10.30;;;5.73;;
19189;SDS011;9727;50.200;19.038;2023-03-19T14:52:37;11.23;;;6.27;;
19189;SDS011;9727;50.200;19.038;2023-03-19T14:55:09;10.13;;;6.53;;
19189;SDS011;9727;50.200;19.038;2023-03-19T14:57:36;11.10;;;6.40;;
19189;SDS011;9727;50.200;19.038;2023-03-19T15:00:03;12.00;;;7.10;;
19189;SDS011;9727;50.200;19.038;2023-03-19T15:02:40;11.93;;;7.03;;
19189;SDS011;9727;50.200;19.038;2023-03-19T15:05:09;11.50;;;6.77;;
19189;SDS011;9727;50.200;19.038;2023-03-19T15:07:40;11.47;;;6.87;;
19189;SDS011;9727;50.200;19.038;2023-03-19T15:10:13;11.27;;;6.90;;
19189;SDS011;9727;50.200;19.038;2023-03-19T15:15:36;11.77;;;6.47;;